createdAt,value
2022-11-10T00:01:27.976Z,2.25
2022-11-10T00:04:48.739Z,2.35
2022-11-10T00:08:11.381Z,2.15
2022-11-10T00:11:31.616Z,2.20
2022-11-10T00:15:10.521Z,2.20
2022-11-10T00:18:30.695Z,2.15
2022-11-10T00:21:50.768Z,2.00
2022-11-10T00:25:12.451Z,2.25
2022-11-10T00:28:32.595Z,2.25
2022-11-10T00:31:52.929Z,2.30
2022-11-10T00:35:13.375Z,2.13
2022-11-10T00:38:33.547Z,2.00
2022-11-10T00:41:53.408Z,1.90
2022-11-10T00:45:13.847Z,1.98
2022-11-10T00:48:34.325Z,1.92
2022-11-10T00:51:54.827Z,1.92
2022-11-10T00:55:15.248Z,1.92
2022-11-10T00:58:35.633Z,1.90
2022-11-10T01:01:55.847Z,2.00
2022-11-10T01:05:16.224Z,1.95
2022-11-10T01:08:37.182Z,1.90
2022-11-10T01:11:57.533Z,2.10
2022-11-10T01:15:18.201Z,1.83
2022-11-10T01:18:40.417Z,1.98
2022-11-10T01:22:01.079Z,1.80
2022-11-10T01:25:21.281Z,1.80
2022-11-10T01:28:41.978Z,1.88
2022-11-10T01:32:02.103Z,1.70
2022-11-10T01:35:22.452Z,1.90
2022-11-10T01:38:42.978Z,1.67
2022-11-10T01:42:03.312Z,1.80
2022-11-10T01:45:23.514Z,1.80
2022-11-10T01:49:00.187Z,1.60
2022-11-10T01:52:20.481Z,1.80
2022-11-10T01:55:43.767Z,1.85
2022-11-10T01:59:09.894Z,1.52
2022-11-10T02:02:42.924Z,1.70
2022-11-10T02:06:04.322Z,1.80
2022-11-10T02:09:25.199Z,1.70
2022-11-10T02:12:46.514Z,1.70
2022-11-10T02:16:07.076Z,1.70
2022-11-10T02:19:27.862Z,1.70
2022-11-10T02:22:48.220Z,1.80
2022-11-10T02:26:08.543Z,1.60
2022-11-10T02:29:28.846Z,1.70
2022-11-10T02:32:49.039Z,1.70
2022-11-10T02:36:09.645Z,1.80
2022-11-10T02:39:30.013Z,1.60
2022-11-10T02:42:50.359Z,1.80
2022-11-10T02:46:10.629Z,1.70
2022-11-10T02:49:30.864Z,1.80
2022-11-10T02:52:51.046Z,1.73
2022-11-10T02:56:11.859Z,1.60
2022-11-10T02:59:31.940Z,1.67
2022-11-10T03:03:02.090Z,1.40
2022-11-10T03:06:22.440Z,1.40
2022-11-10T03:09:42.842Z,1.70
2022-11-10T03:13:03.521Z,1.80
2022-11-10T03:16:23.416Z,1.50
2022-11-10T03:19:43.674Z,1.63
2022-11-10T03:23:04.491Z,1.50
2022-11-10T03:26:24.813Z,1.77
2022-11-10T03:29:45.021Z,1.60
2022-11-10T03:33:06.033Z,1.50
2022-11-10T03:36:26.053Z,1.40
2022-11-10T03:39:46.197Z,1.50
2022-11-10T03:43:06.466Z,1.50
2022-11-10T03:46:26.634Z,1.35
2022-11-10T03:49:46.794Z,1.40
2022-11-10T03:53:07.120Z,1.50
2022-11-10T03:56:27.166Z,1.58
2022-11-10T03:59:47.170Z,1.58
2022-11-10T04:03:07.175Z,1.50
2022-11-10T04:06:46.058Z,1.52
2022-11-10T04:10:07.056Z,1.40
2022-11-10T04:13:45.947Z,1.50
2022-11-10T04:17:06.369Z,1.40
2022-11-10T04:20:26.485Z,1.40
2022-11-10T04:23:46.365Z,1.40
2022-11-10T04:27:06.127Z,1.50
2022-11-10T04:30:26.375Z,1.75
2022-11-10T04:33:47.668Z,1.45
2022-11-10T04:37:07.761Z,1.38
2022-11-10T04:40:27.652Z,1.42
2022-11-10T04:43:47.800Z,1.40
2022-11-10T04:47:11.667Z,1.40
2022-11-10T04:50:32.449Z,1.40
2022-11-10T04:53:52.635Z,1.50
2022-11-10T04:57:13.069Z,1.40
2022-11-10T05:00:34.446Z,1.50
2022-11-10T05:03:55.659Z,1.50
2022-11-10T05:07:15.839Z,1.50
2022-11-10T05:10:37.490Z,1.58
2022-11-10T05:13:57.465Z,1.42
2022-11-10T05:17:17.769Z,1.42
2022-11-10T05:20:37.979Z,1.50
2022-11-10T05:23:58.139Z,1.50
2022-11-10T05:27:18.077Z,1.50
2022-11-10T05:30:39.572Z,1.52
2022-11-10T05:33:59.732Z,1.50
2022-11-10T05:37:19.854Z,1.70
2022-11-10T05:40:40.072Z,1.42
2022-11-10T05:43:59.959Z,1.60
2022-11-10T05:47:20.241Z,1.60
2022-11-10T05:50:40.611Z,1.50
2022-11-10T05:54:00.897Z,1.50
2022-11-10T05:57:21.879Z,1.40
2022-11-10T06:00:42.082Z,1.40
2022-11-10T06:04:02.296Z,1.65
2022-11-10T06:07:22.455Z,1.52
2022-11-10T06:10:42.400Z,1.42
2022-11-10T06:14:02.498Z,1.70
2022-11-10T06:17:22.850Z,1.55
2022-11-10T06:20:42.692Z,1.40
2022-11-10T06:24:02.864Z,1.50
2022-11-10T06:27:23.001Z,1.40
2022-11-10T06:30:43.063Z,1.38
2022-11-10T06:34:03.296Z,1.45
2022-11-10T06:37:23.474Z,1.45
2022-11-10T06:40:43.669Z,1.23
2022-11-10T06:44:03.829Z,1.40
2022-11-10T06:47:23.750Z,1.60
2022-11-10T06:50:44.015Z,1.40
2022-11-10T06:54:04.261Z,1.85
2022-11-10T06:57:24.408Z,1.60
2022-11-10T07:00:44.559Z,1.60
2022-11-10T07:04:19.127Z,1.48
2022-11-10T07:07:39.925Z,1.40
2022-11-10T07:11:00.168Z,1.83
2022-11-10T07:14:20.221Z,1.50
2022-11-10T07:17:41.061Z,1.50
2022-11-10T07:21:06.012Z,1.67
2022-11-10T07:24:26.427Z,1.60
2022-11-10T07:27:46.641Z,1.55
2022-11-10T07:31:06.616Z,1.85
2022-11-10T07:34:26.612Z,1.40
2022-11-10T07:37:46.700Z,1.55
2022-11-10T07:41:06.757Z,1.60
2022-11-10T07:44:27.727Z,1.65
2022-11-10T07:47:48.082Z,1.73
2022-11-10T07:51:08.507Z,1.60
2022-11-10T07:54:28.598Z,1.50
2022-11-10T07:57:48.834Z,1.70
2022-11-10T08:01:10.101Z,1.60
2022-11-10T08:04:30.057Z,1.77
2022-11-10T08:07:50.155Z,1.70
2022-11-10T08:11:10.321Z,1.70
2022-11-10T08:14:30.275Z,1.70
2022-11-10T08:17:50.521Z,1.50
2022-11-10T08:21:10.848Z,1.70
2022-11-10T08:24:31.293Z,1.70
2022-11-10T08:27:57.921Z,1.52
2022-11-10T08:31:18.228Z,1.75
2022-11-10T08:34:38.422Z,1.60
2022-11-10T08:37:58.449Z,1.70
2022-11-10T08:41:18.801Z,1.52
2022-11-10T08:44:39.012Z,1.83
2022-11-10T08:48:05.187Z,1.70
2022-11-10T08:51:25.113Z,1.73
2022-11-10T08:54:45.094Z,1.60
2022-11-10T08:58:06.523Z,1.75
2022-11-10T09:01:26.824Z,1.42
2022-11-10T09:04:47.216Z,1.70
2022-11-10T09:08:07.936Z,1.67
2022-11-10T09:11:27.900Z,1.67
2022-11-10T09:14:48.204Z,1.90
2022-11-10T09:18:10.164Z,1.80
2022-11-10T09:21:30.605Z,1.73
2022-11-10T09:24:50.702Z,1.52
2022-11-10T09:28:14.425Z,1.70
2022-11-10T09:31:34.458Z,1.60
2022-11-10T09:34:54.301Z,1.70
2022-11-10T09:38:14.541Z,1.50
2022-11-10T09:41:40.241Z,1.58
2022-11-10T09:45:04.926Z,1.63
2022-11-10T09:48:32.812Z,1.67
2022-11-10T09:51:53.850Z,1.60
2022-11-10T09:55:48.939Z,1.60
2022-11-10T09:59:30.507Z,1.60
2022-11-10T10:03:01.931Z,1.63
2022-11-10T10:06:22.539Z,1.60
2022-11-10T10:10:01.433Z,1.70
2022-11-10T10:13:36.416Z,1.70
2022-11-10T10:17:17.994Z,1.60
2022-11-10T10:20:47.128Z,1.60
2022-11-10T10:24:21.491Z,1.77
2022-11-10T10:27:45.163Z,1.65
2022-11-10T10:31:39.649Z,1.80
2022-11-10T10:34:59.677Z,1.70
2022-11-10T10:38:35.764Z,5.47
2022-11-10T10:41:55.739Z,7.47
2022-11-10T10:45:29.757Z,8.38
2022-11-10T10:49:32.994Z,9.95
2022-11-10T10:53:19.650Z,9.50
2022-11-10T10:56:39.796Z,10.43
2022-11-10T11:00:15.494Z,10.60
2022-11-10T11:03:38.707Z,9.27
2022-11-10T11:07:04.723Z,8.95
2022-11-10T11:10:35.447Z,9.65
2022-11-10T11:14:12.909Z,8.82
2022-11-10T11:17:32.846Z,9.05
2022-11-10T11:21:20.144Z,8.57
2022-11-10T11:25:06.247Z,9.00
2022-11-10T11:28:41.243Z,8.98
2022-11-10T11:32:39.330Z,8.35
2022-11-10T11:36:18.155Z,7.22
2022-11-10T11:40:00.116Z,7.75
2022-11-10T11:43:28.525Z,7.60
2022-11-10T11:47:19.856Z,7.40
2022-11-10T11:51:01.295Z,6.22
2022-11-10T11:54:24.079Z,6.43
2022-11-10T11:58:02.808Z,6.53
2022-11-10T12:01:43.895Z,6.75
2022-11-10T12:05:25.854Z,6.10
2022-11-10T12:08:46.387Z,6.45
2022-11-10T12:12:26.947Z,5.80
2022-11-10T12:15:58.771Z,6.32
2022-11-10T12:19:38.944Z,5.82
2022-11-10T12:23:10.027Z,5.57
2022-11-10T12:26:35.198Z,6.10
2022-11-10T12:29:59.481Z,5.38
2022-11-10T12:33:45.002Z,5.00
2022-11-10T12:37:07.641Z,6.05
2022-11-10T12:40:36.976Z,6.05
2022-11-10T12:44:00.164Z,6.43
2022-11-10T12:47:22.767Z,6.25
2022-11-10T12:50:53.886Z,7.30
2022-11-10T12:54:17.468Z,6.00
2022-11-10T12:57:38.357Z,6.20
2022-11-10T13:01:06.860Z,6.63
2022-11-10T13:04:27.731Z,5.88
2022-11-10T13:07:50.350Z,5.93
2022-11-10T13:11:13.635Z,4.93
2022-11-10T13:14:34.479Z,6.15
2022-11-10T13:17:55.531Z,5.22
2022-11-10T13:21:15.886Z,5.22
2022-11-10T13:24:42.307Z,5.68
2022-11-10T13:28:03.841Z,5.28
2022-11-10T13:31:27.032Z,5.60
2022-11-10T13:34:47.643Z,4.80
2022-11-10T13:38:34.269Z,5.00
2022-11-10T13:42:23.900Z,5.47
2022-11-10T13:45:45.752Z,4.75
2022-11-10T13:49:43.415Z,5.13
2022-11-10T13:53:23.099Z,4.30
2022-11-10T13:57:08.842Z,4.25
2022-11-10T14:00:31.799Z,4.55
2022-11-10T14:03:55.582Z,4.15
2022-11-10T14:07:19.461Z,4.05
2022-11-10T14:10:47.271Z,4.47
2022-11-10T14:14:39.613Z,4.03
2022-11-10T14:18:00.679Z,3.95
2022-11-10T14:21:36.177Z,3.80
2022-11-10T14:25:20.757Z,3.40
2022-11-10T14:28:41.130Z,3.70
2022-11-10T14:32:19.963Z,4.07
2022-11-10T14:35:49.482Z,3.60
2022-11-10T14:39:09.682Z,3.97
2022-11-10T14:42:32.307Z,3.53
2022-11-10T14:45:55.131Z,3.15
2022-11-10T14:49:21.581Z,3.22
2022-11-10T14:52:43.823Z,3.25
2022-11-10T14:56:15.132Z,3.95
2022-11-10T14:59:37.620Z,3.33
2022-11-10T15:02:58.381Z,3.63
2022-11-10T15:06:19.791Z,2.95
2022-11-10T15:09:41.230Z,3.40
2022-11-10T15:13:17.454Z,3.45
2022-11-10T15:16:38.522Z,3.10
2022-11-10T15:19:58.778Z,3.30
2022-11-10T15:23:33.463Z,3.00
2022-11-10T15:26:54.257Z,3.08
2022-11-10T15:30:23.310Z,2.75
2022-11-10T15:33:51.548Z,2.95
2022-11-10T15:37:20.467Z,3.30
2022-11-10T15:40:52.323Z,3.00
2022-11-10T15:44:25.781Z,3.03
2022-11-10T15:47:46.075Z,3.00
2022-11-10T15:51:08.709Z,3.08
2022-11-10T15:54:33.669Z,2.80
2022-11-10T15:57:53.881Z,2.60
2022-11-10T16:01:15.451Z,2.88
2022-11-10T16:04:35.737Z,2.63
2022-11-10T16:07:55.693Z,2.80
2022-11-10T16:11:20.911Z,2.90
2022-11-10T16:14:43.788Z,2.80
2022-11-10T16:18:04.401Z,2.40
2022-11-10T16:21:25.991Z,2.75
2022-11-10T16:24:45.922Z,2.35
2022-11-10T16:28:06.484Z,2.78
2022-11-10T16:31:27.697Z,2.53
2022-11-10T16:34:47.731Z,2.60
2022-11-10T16:38:18.444Z,2.40
2022-11-10T16:41:38.861Z,2.70
2022-11-10T16:44:59.207Z,2.28
2022-11-10T16:48:23.203Z,2.40
2022-11-10T16:51:48.859Z,2.05
2022-11-10T16:55:13.826Z,2.20
2022-11-10T16:58:33.962Z,2.13
2022-11-10T17:01:54.591Z,2.53
2022-11-10T17:05:15.623Z,2.20
2022-11-10T17:08:36.111Z,2.40
2022-11-10T17:11:56.268Z,2.40
2022-11-10T17:15:16.830Z,2.13
2022-11-10T17:18:37.533Z,2.20
2022-11-10T17:21:57.478Z,2.15
2022-11-10T17:25:26.885Z,2.72
2022-11-10T17:28:47.051Z,2.20
2022-11-10T17:32:07.337Z,2.30
2022-11-10T17:35:27.401Z,2.50
2022-11-10T17:38:47.820Z,2.40
2022-11-10T17:42:13.469Z,2.47
2022-11-10T17:45:33.545Z,2.78
2022-11-10T17:49:00.107Z,2.85
2022-11-10T17:52:22.618Z,3.35
2022-11-10T17:55:42.683Z,2.63
2022-11-10T17:59:02.565Z,3.03
2022-11-10T18:02:22.442Z,3.28
2022-11-10T18:05:43.069Z,3.42
2022-11-10T18:09:03.030Z,2.90
2022-11-10T18:12:27.747Z,2.90
2022-11-10T18:15:48.867Z,2.50
2022-11-10T18:19:11.096Z,2.60
2022-11-10T18:22:31.450Z,2.60
2022-11-10T18:25:51.537Z,2.85
2022-11-10T18:29:11.792Z,2.90
2022-11-10T18:32:32.217Z,2.72
2022-11-10T18:35:52.502Z,2.83
2022-11-10T18:39:12.751Z,2.80
2022-11-10T18:42:34.311Z,2.70
2022-11-10T18:45:54.605Z,2.60
2022-11-10T18:49:15.653Z,2.40
2022-11-10T18:52:35.955Z,2.33
2022-11-10T18:55:56.146Z,2.42
2022-11-10T18:59:16.282Z,2.63
2022-11-10T19:02:36.176Z,2.22
2022-11-10T19:05:59.690Z,2.30
2022-11-10T19:09:19.808Z,2.63
2022-11-10T19:12:40.018Z,2.15
2022-11-10T19:16:04.484Z,1.95
2022-11-10T19:19:24.916Z,2.10
2022-11-10T19:22:45.102Z,1.90
2022-11-10T19:26:17.877Z,1.88
2022-11-10T19:29:41.238Z,2.17
2022-11-10T19:33:01.534Z,2.35
2022-11-10T19:36:26.613Z,1.85
2022-11-10T19:39:46.565Z,2.10
2022-11-10T19:43:06.620Z,1.92
2022-11-10T19:46:29.504Z,2.17
2022-11-10T19:49:49.606Z,1.80
2022-11-10T19:53:09.482Z,1.80
2022-11-10T19:56:33.474Z,1.77
2022-11-10T19:59:53.635Z,1.73
2022-11-10T20:03:14.834Z,1.75
2022-11-10T20:06:34.769Z,1.80
2022-11-10T20:09:55.699Z,2.10
2022-11-10T20:13:15.522Z,1.63
2022-11-10T20:16:35.408Z,1.88
2022-11-10T20:19:55.757Z,1.70
2022-11-10T20:23:16.704Z,1.90
2022-11-10T20:26:36.937Z,1.98
2022-11-10T20:29:57.261Z,1.80
2022-11-10T20:33:17.427Z,1.70
2022-11-10T20:36:37.320Z,1.88
2022-11-10T20:39:57.304Z,1.90
2022-11-10T20:43:18.447Z,1.80
2022-11-10T20:46:55.401Z,1.73
2022-11-10T20:50:19.287Z,1.70
2022-11-10T20:53:43.315Z,1.77
2022-11-10T20:57:03.459Z,1.80
2022-11-10T21:00:23.757Z,1.58
2022-11-10T21:03:43.976Z,1.70
2022-11-10T21:07:04.719Z,1.63
2022-11-10T21:10:24.891Z,1.70
2022-11-10T21:13:44.939Z,1.50
2022-11-10T21:17:05.003Z,1.80
2022-11-10T21:20:25.157Z,1.60
2022-11-10T21:23:45.025Z,1.73
2022-11-10T21:27:05.045Z,1.75
2022-11-10T21:30:25.308Z,1.50
2022-11-10T21:33:45.599Z,1.48
2022-11-10T21:37:05.542Z,1.45
2022-11-10T21:40:25.688Z,1.35
2022-11-10T21:43:45.653Z,1.60
2022-11-10T21:47:06.021Z,1.40
2022-11-10T21:50:26.430Z,1.30
2022-11-10T21:53:46.273Z,1.50
2022-11-10T21:57:06.391Z,1.27
2022-11-10T22:00:26.753Z,1.40
2022-11-10T22:03:46.997Z,1.52
2022-11-10T22:07:23.426Z,1.50
2022-11-10T22:11:02.438Z,1.80
2022-11-10T22:14:41.417Z,1.48
2022-11-10T22:18:20.807Z,1.35
2022-11-10T22:21:41.096Z,1.60
2022-11-10T22:25:01.243Z,1.38
2022-11-10T22:28:21.298Z,1.30
2022-11-10T22:31:41.694Z,1.15
2022-11-10T22:35:01.908Z,1.30
2022-11-10T22:38:21.974Z,1.40
2022-11-10T22:42:00.554Z,1.40
2022-11-10T22:45:20.777Z,1.30
2022-11-10T22:48:40.710Z,1.55
2022-11-10T22:52:01.276Z,1.35
2022-11-10T22:55:21.495Z,1.50
2022-11-10T22:58:41.669Z,1.40
2022-11-10T23:02:01.642Z,1.45
2022-11-10T23:05:21.808Z,1.48
2022-11-10T23:08:41.920Z,1.15
2022-11-10T23:12:02.247Z,1.27
2022-11-10T23:15:23.684Z,1.23
2022-11-10T23:18:46.283Z,1.50
2022-11-10T23:22:06.283Z,1.33
2022-11-10T23:25:26.174Z,1.30
2022-11-10T23:28:46.747Z,1.40
2022-11-10T23:32:06.831Z,1.15
2022-11-10T23:35:26.747Z,1.38
2022-11-10T23:38:48.653Z,1.10
2022-11-10T23:42:09.157Z,1.38
2022-11-10T23:45:52.670Z,1.13
2022-11-10T23:49:09.252Z,1.20
2022-11-10T23:52:29.117Z,1.10
2022-11-10T23:55:59.212Z,1.30
2022-11-10T23:59:19.397Z,1.52
